sensor_id;sensor_type;location;lat;lon;timestamp;P1;durP1;ratioP1;P2;durP2;ratioP2
46222;SDS011;31943;51.410;7.564;2022-07-17T00:00:39;2.95;;;1.10;;
46222;SDS011;31943;51.410;7.564;2022-07-17T00:03:05;1.55;;;0.80;;
46222;SDS011;31943;51.410;7.564;2022-07-17T00:05:32;2.05;;;0.90;;
46222;SDS011;31943;51.410;7.564;2022-07-17T00:07:58;3.30;;;1.08;;
46222;SDS011;31943;51.410;7.564;2022-07-17T00:10:24;2.13;;;1.17;;
46222;SDS011;31943;51.410;7.564;2022-07-17T00:12:50;1.92;;;1.10;;
46222;SDS011;31943;51.410;7.564;2022-07-17T00:15:17;4.07;;;1.20;;
46222;SDS011;31943;51.410;7.564;2022-07-17T00:17:43;2.30;;;1.05;;
46222;SDS011;31943;51.410;7.564;2022-07-17T00:20:09;1.90;;;0.90;;
46222;SDS011;31943;51.410;7.564;2022-07-17T00:22:37;2.38;;;1.05;;
46222;SDS011;31943;51.410;7.564;2022-07-17T00:25:03;2.13;;;0.90;;
46222;SDS011;31943;51.410;7.564;2022-07-17T00:27:29;2.35;;;0.98;;
46222;SDS011;31943;51.410;7.564;2022-07-17T00:29:55;4.13;;;1.35;;
46222;SDS011;31943;51.410;7.564;2022-07-17T00:32:21;3.08;;;1.15;;
46222;SDS011;31943;51.410;7.564;2022-07-17T00:34:46;2.50;;;0.90;;
46222;SDS011;31943;51.410;7.564;2022-07-17T00:37:12;1.65;;;0.70;;
46222;SDS011;31943;51.410;7.564;2022-07-17T00:39:40;2.05;;;0.98;;
46222;SDS011;31943;51.410;7.564;2022-07-17T00:42:09;2.67;;;0.98;;
46222;SDS011;31943;51.410;7.564;2022-07-17T00:44:36;2.08;;;1.02;;
46222;SDS011;31943;51.410;7.564;2022-07-17T00:47:04;2.92;;;0.93;;
46222;SDS011;31943;51.410;7.564;2022-07-17T00:49:36;1.58;;;0.85;;
46222;SDS011;31943;51.410;7.564;2022-07-17T00:52:02;2.28;;;0.90;;
46222;SDS011;31943;51.410;7.564;2022-07-17T00:54:28;3.33;;;1.30;;
46222;SDS011;31943;51.410;7.564;2022-07-17T00:56:56;3.65;;;1.20;;
46222;SDS011;31943;51.410;7.564;2022-07-17T00:59:27;2.13;;;1.10;;
46222;SDS011;31943;51.410;7.564;2022-07-17T01:01:55;3.35;;;1.10;;
46222;SDS011;31943;51.410;7.564;2022-07-17T01:04:21;2.45;;;1.02;;
46222;SDS011;31943;51.410;7.564;2022-07-17T01:06:47;7.35;;;1.35;;
46222;SDS011;31943;51.410;7.564;2022-07-17T01:09:14;2.65;;;1.00;;
46222;SDS011;31943;51.410;7.564;2022-07-17T01:11:40;2.22;;;0.98;;
46222;SDS011;31943;51.410;7.564;2022-07-17T01:14:07;4.72;;;1.20;;
46222;SDS011;31943;51.410;7.564;2022-07-17T01:16:33;3.40;;;1.30;;
46222;SDS011;31943;51.410;7.564;2022-07-17T01:19:00;3.35;;;1.02;;
46222;SDS011;31943;51.410;7.564;2022-07-17T01:21:38;3.72;;;1.08;;
46222;SDS011;31943;51.410;7.564;2022-07-17T01:24:04;4.38;;;1.25;;
46222;SDS011;31943;51.410;7.564;2022-07-17T01:26:31;2.45;;;1.05;;
46222;SDS011;31943;51.410;7.564;2022-07-17T01:28:57;3.90;;;1.30;;
46222;SDS011;31943;51.410;7.564;2022-07-17T01:31:22;2.17;;;0.80;;
46222;SDS011;31943;51.410;7.564;2022-07-17T01:33:48;2.92;;;1.10;;
46222;SDS011;31943;51.410;7.564;2022-07-17T01:36:15;4.10;;;0.95;;
46222;SDS011;31943;51.410;7.564;2022-07-17T01:38:42;3.35;;;0.88;;
46222;SDS011;31943;51.410;7.564;2022-07-17T01:41:08;2.28;;;1.02;;
46222;SDS011;31943;51.410;7.564;2022-07-17T01:43:34;2.15;;;0.80;;
46222;SDS011;31943;51.410;7.564;2022-07-17T01:46:00;3.05;;;1.20;;
46222;SDS011;31943;51.410;7.564;2022-07-17T01:48:26;1.95;;;1.05;;
46222;SDS011;31943;51.410;7.564;2022-07-17T01:50:54;3.70;;;1.00;;
46222;SDS011;31943;51.410;7.564;2022-07-17T01:53:20;3.03;;;1.08;;
46222;SDS011;31943;51.410;7.564;2022-07-17T01:55:48;3.35;;;1.30;;
46222;SDS011;31943;51.410;7.564;2022-07-17T01:58:14;3.20;;;1.25;;
46222;SDS011;31943;51.410;7.564;2022-07-17T02:00:40;2.90;;;1.08;;
46222;SDS011;31943;51.410;7.564;2022-07-17T02:03:07;4.35;;;1.23;;
46222;SDS011;31943;51.410;7.564;2022-07-17T02:05:33;4.85;;;1.05;;
46222;SDS011;31943;51.410;7.564;2022-07-17T02:07:59;3.97;;;1.42;;
46222;SDS011;31943;51.410;7.564;2022-07-17T02:10:25;1.42;;;0.98;;
46222;SDS011;31943;51.410;7.564;2022-07-17T02:12:53;2.50;;;0.85;;
46222;SDS011;31943;51.410;7.564;2022-07-17T02:15:18;5.55;;;1.23;;
46222;SDS011;31943;51.410;7.564;2022-07-17T02:17:46;2.38;;;1.00;;
46222;SDS011;31943;51.410;7.564;2022-07-17T02:20:12;2.58;;;1.30;;
46222;SDS011;31943;51.410;7.564;2022-07-17T02:22:38;2.50;;;1.00;;
46222;SDS011;31943;51.410;7.564;2022-07-17T02:25:06;3.15;;;1.23;;
46222;SDS011;31943;51.410;7.564;2022-07-17T02:27:34;3.58;;;1.20;;
46222;SDS011;31943;51.410;7.564;2022-07-17T02:30:03;3.28;;;1.13;;
46222;SDS011;31943;51.410;7.564;2022-07-17T02:32:30;2.88;;;1.30;;
46222;SDS011;31943;51.410;7.564;2022-07-17T02:34:57;2.67;;;1.20;;
46222;SDS011;31943;51.410;7.564;2022-07-17T02:37:23;2.63;;;1.35;;
46222;SDS011;31943;51.410;7.564;2022-07-17T02:39:48;3.17;;;1.08;;
46222;SDS011;31943;51.410;7.564;2022-07-17T02:42:14;1.83;;;1.17;;
46222;SDS011;31943;51.410;7.564;2022-07-17T02:44:41;2.80;;;0.93;;
46222;SDS011;31943;51.410;7.564;2022-07-17T02:47:09;3.58;;;1.38;;
46222;SDS011;31943;51.410;7.564;2022-07-17T02:49:35;2.88;;;1.05;;
46222;SDS011;31943;51.410;7.564;2022-07-17T02:52:00;3.38;;;1.05;;
46222;SDS011;31943;51.410;7.564;2022-07-17T02:54:27;1.85;;;1.10;;
46222;SDS011;31943;51.410;7.564;2022-07-17T02:56:58;4.25;;;1.23;;
46222;SDS011;31943;51.410;7.564;2022-07-17T02:59:24;2.65;;;1.10;;
46222;SDS011;31943;51.410;7.564;2022-07-17T03:01:51;2.97;;;1.05;;
46222;SDS011;31943;51.410;7.564;2022-07-17T03:04:21;3.28;;;1.05;;
46222;SDS011;31943;51.410;7.564;2022-07-17T03:06:49;4.13;;;1.40;;
46222;SDS011;31943;51.410;7.564;2022-07-17T03:09:15;5.85;;;1.35;;
46222;SDS011;31943;51.410;7.564;2022-07-17T03:11:40;2.92;;;1.20;;
46222;SDS011;31943;51.410;7.564;2022-07-17T03:14:06;3.55;;;1.40;;
46222;SDS011;31943;51.410;7.564;2022-07-17T03:16:32;4.43;;;1.30;;
46222;SDS011;31943;51.410;7.564;2022-07-17T03:18:57;3.30;;;1.17;;
46222;SDS011;31943;51.410;7.564;2022-07-17T03:21:25;1.92;;;1.20;;
46222;SDS011;31943;51.410;7.564;2022-07-17T03:23:52;2.13;;;1.08;;
46222;SDS011;31943;51.410;7.564;2022-07-17T03:26:18;2.65;;;1.20;;
46222;SDS011;31943;51.410;7.564;2022-07-17T03:28:44;3.08;;;0.88;;
46222;SDS011;31943;51.410;7.564;2022-07-17T03:31:09;2.40;;;1.20;;
46222;SDS011;31943;51.410;7.564;2022-07-17T03:33:36;1.98;;;0.95;;
46222;SDS011;31943;51.410;7.564;2022-07-17T03:36:02;2.78;;;1.25;;
46222;SDS011;31943;51.410;7.564;2022-07-17T03:38:29;7.95;;;1.33;;
46222;SDS011;31943;51.410;7.564;2022-07-17T03:40:56;2.55;;;0.95;;
46222;SDS011;31943;51.410;7.564;2022-07-17T03:43:21;3.42;;;1.20;;
46222;SDS011;31943;51.410;7.564;2022-07-17T03:45:49;2.83;;;1.13;;
46222;SDS011;31943;51.410;7.564;2022-07-17T03:48:16;3.53;;;1.33;;
46222;SDS011;31943;51.410;7.564;2022-07-17T03:50:44;1.50;;;0.95;;
46222;SDS011;31943;51.410;7.564;2022-07-17T03:53:10;1.52;;;1.13;;
46222;SDS011;31943;51.410;7.564;2022-07-17T03:55:38;3.90;;;1.48;;
46222;SDS011;31943;51.410;7.564;2022-07-17T03:58:03;2.78;;;1.00;;
46222;SDS011;31943;51.410;7.564;2022-07-17T04:00:29;2.35;;;1.13;;
46222;SDS011;31943;51.410;7.564;2022-07-17T04:02:56;2.42;;;1.20;;
46222;SDS011;31943;51.410;7.564;2022-07-17T04:05:22;2.70;;;1.10;;
46222;SDS011;31943;51.410;7.564;2022-07-17T04:07:50;3.17;;;1.40;;
46222;SDS011;31943;51.410;7.564;2022-07-17T04:10:16;1.50;;;1.20;;
46222;SDS011;31943;51.410;7.564;2022-07-17T04:12:43;2.55;;;1.20;;
46222;SDS011;31943;51.410;7.564;2022-07-17T04:15:09;2.60;;;1.23;;
46222;SDS011;31943;51.410;7.564;2022-07-17T04:17:36;2.65;;;1.23;;
46222;SDS011;31943;51.410;7.564;2022-07-17T04:20:03;2.45;;;1.02;;
46222;SDS011;31943;51.410;7.564;2022-07-17T04:22:29;3.58;;;1.30;;
46222;SDS011;31943;51.410;7.564;2022-07-17T04:24:56;4.32;;;1.25;;
46222;SDS011;31943;51.410;7.564;2022-07-17T04:27:22;2.75;;;1.30;;
46222;SDS011;31943;51.410;7.564;2022-07-17T04:29:50;2.55;;;1.30;;
46222;SDS011;31943;51.410;7.564;2022-07-17T04:32:16;1.85;;;1.02;;
46222;SDS011;31943;51.410;7.564;2022-07-17T04:34:42;3.38;;;1.35;;
46222;SDS011;31943;51.410;7.564;2022-07-17T04:37:08;2.25;;;1.38;;
46222;SDS011;31943;51.410;7.564;2022-07-17T04:39:33;2.88;;;1.40;;
46222;SDS011;31943;51.410;7.564;2022-07-17T04:41:59;2.67;;;1.00;;
46222;SDS011;31943;51.410;7.564;2022-07-17T04:44:25;6.20;;;1.40;;
46222;SDS011;31943;51.410;7.564;2022-07-17T04:46:52;2.65;;;1.20;;
46222;SDS011;31943;51.410;7.564;2022-07-17T04:49:18;3.15;;;1.38;;
46222;SDS011;31943;51.410;7.564;2022-07-17T04:51:44;1.65;;;0.98;;
46222;SDS011;31943;51.410;7.564;2022-07-17T04:54:10;5.40;;;1.33;;
46222;SDS011;31943;51.410;7.564;2022-07-17T04:56:36;2.45;;;1.30;;
46222;SDS011;31943;51.410;7.564;2022-07-17T04:59:02;2.70;;;1.15;;
46222;SDS011;31943;51.410;7.564;2022-07-17T05:01:28;4.72;;;1.70;;
46222;SDS011;31943;51.410;7.564;2022-07-17T05:03:56;5.38;;;1.48;;
46222;SDS011;31943;51.410;7.564;2022-07-17T05:06:22;4.47;;;1.60;;
46222;SDS011;31943;51.410;7.564;2022-07-17T05:08:48;2.67;;;1.38;;
46222;SDS011;31943;51.410;7.564;2022-07-17T05:11:14;3.75;;;1.52;;
46222;SDS011;31943;51.410;7.564;2022-07-17T05:13:40;3.78;;;1.80;;
46222;SDS011;31943;51.410;7.564;2022-07-17T05:16:06;5.10;;;1.70;;
46222;SDS011;31943;51.410;7.564;2022-07-17T05:18:33;4.15;;;2.20;;
46222;SDS011;31943;51.410;7.564;2022-07-17T05:21:01;4.97;;;1.98;;
46222;SDS011;31943;51.410;7.564;2022-07-17T05:23:26;2.85;;;1.77;;
46222;SDS011;31943;51.410;7.564;2022-07-17T05:25:53;4.60;;;1.95;;
46222;SDS011;31943;51.410;7.564;2022-07-17T05:28:18;4.30;;;2.05;;
46222;SDS011;31943;51.410;7.564;2022-07-17T05:30:44;3.83;;;1.77;;
46222;SDS011;31943;51.410;7.564;2022-07-17T05:33:11;3.83;;;1.88;;
46222;SDS011;31943;51.410;7.564;2022-07-17T05:35:37;4.63;;;1.85;;
46222;SDS011;31943;51.410;7.564;2022-07-17T05:38:05;2.50;;;1.95;;
46222;SDS011;31943;51.410;7.564;2022-07-17T05:40:38;5.07;;;2.20;;
46222;SDS011;31943;51.410;7.564;2022-07-17T05:43:06;3.72;;;1.98;;
46222;SDS011;31943;51.410;7.564;2022-07-17T05:45:31;4.55;;;1.92;;
46222;SDS011;31943;51.410;7.564;2022-07-17T05:47:57;3.70;;;2.10;;
46222;SDS011;31943;51.410;7.564;2022-07-17T05:50:23;4.47;;;2.25;;
46222;SDS011;31943;51.410;7.564;2022-07-17T05:52:49;4.88;;;2.00;;
46222;SDS011;31943;51.410;7.564;2022-07-17T05:55:16;3.53;;;1.88;;
46222;SDS011;31943;51.410;7.564;2022-07-17T05:57:49;4.10;;;2.35;;
46222;SDS011;31943;51.410;7.564;2022-07-17T06:00:15;3.58;;;2.40;;
46222;SDS011;31943;51.410;7.564;2022-07-17T06:02:41;4.65;;;2.20;;
46222;SDS011;31943;51.410;7.564;2022-07-17T06:05:08;3.10;;;2.13;;
46222;SDS011;31943;51.410;7.564;2022-07-17T06:07:34;6.90;;;2.35;;
46222;SDS011;31943;51.410;7.564;2022-07-17T06:10:00;4.03;;;2.22;;
46222;SDS011;31943;51.410;7.564;2022-07-17T06:12:27;4.22;;;2.42;;
46222;SDS011;31943;51.410;7.564;2022-07-17T06:14:53;4.97;;;2.30;;
46222;SDS011;31943;51.410;7.564;2022-07-17T06:17:22;4.85;;;2.20;;
46222;SDS011;31943;51.410;7.564;2022-07-17T06:20:18;3.03;;;2.03;;
46222;SDS011;31943;51.410;7.564;2022-07-17T06:23:29;5.15;;;2.33;;
46222;SDS011;31943;51.410;7.564;2022-07-17T06:25:55;6.20;;;2.50;;
46222;SDS011;31943;51.410;7.564;2022-07-17T06:28:22;4.97;;;2.28;;
46222;SDS011;31943;51.410;7.564;2022-07-17T06:30:48;4.38;;;2.17;;
46222;SDS011;31943;51.410;7.564;2022-07-17T06:33:14;7.53;;;2.40;;
46222;SDS011;31943;51.410;7.564;2022-07-17T06:35:39;4.53;;;2.08;;
46222;SDS011;31943;51.410;7.564;2022-07-17T06:38:05;3.40;;;2.00;;
46222;SDS011;31943;51.410;7.564;2022-07-17T06:40:30;4.43;;;2.40;;
46222;SDS011;31943;51.410;7.564;2022-07-17T06:42:56;2.92;;;2.08;;
46222;SDS011;31943;51.410;7.564;2022-07-17T06:45:23;4.50;;;2.35;;
46222;SDS011;31943;51.410;7.564;2022-07-17T06:47:49;4.28;;;2.20;;
46222;SDS011;31943;51.410;7.564;2022-07-17T06:50:15;5.03;;;1.88;;
46222;SDS011;31943;51.410;7.564;2022-07-17T06:52:40;4.53;;;2.25;;
46222;SDS011;31943;51.410;7.564;2022-07-17T06:55:06;3.35;;;1.70;;
46222;SDS011;31943;51.410;7.564;2022-07-17T06:57:32;4.75;;;1.80;;
46222;SDS011;31943;51.410;7.564;2022-07-17T06:59:58;4.93;;;1.88;;
46222;SDS011;31943;51.410;7.564;2022-07-17T07:02:25;3.72;;;1.77;;
46222;SDS011;31943;51.410;7.564;2022-07-17T07:04:51;3.88;;;1.85;;
46222;SDS011;31943;51.410;7.564;2022-07-17T07:07:17;3.30;;;1.65;;
46222;SDS011;31943;51.410;7.564;2022-07-17T07:09:43;4.38;;;1.60;;
46222;SDS011;31943;51.410;7.564;2022-07-17T07:12:09;5.63;;;1.85;;
46222;SDS011;31943;51.410;7.564;2022-07-17T07:14:34;2.97;;;1.40;;
46222;SDS011;31943;51.410;7.564;2022-07-17T07:17:00;5.93;;;1.60;;
46222;SDS011;31943;51.410;7.564;2022-07-17T07:19:27;4.03;;;1.52;;
46222;SDS011;31943;51.410;7.564;2022-07-17T07:21:54;3.13;;;1.35;;
46222;SDS011;31943;51.410;7.564;2022-07-17T07:24:20;5.60;;;1.10;;
46222;SDS011;31943;51.410;7.564;2022-07-17T07:26:45;5.00;;;1.60;;
46222;SDS011;31943;51.410;7.564;2022-07-17T07:29:11;4.65;;;1.25;;
46222;SDS011;31943;51.410;7.564;2022-07-17T07:31:37;4.35;;;1.38;;
46222;SDS011;31943;51.410;7.564;2022-07-17T07:34:02;4.43;;;1.42;;
46222;SDS011;31943;51.410;7.564;2022-07-17T07:36:30;2.08;;;1.15;;
46222;SDS011;31943;51.410;7.564;2022-07-17T07:38:55;6.40;;;1.15;;
46222;SDS011;31943;51.410;7.564;2022-07-17T07:41:21;3.58;;;1.30;;
46222;SDS011;31943;51.410;7.564;2022-07-17T07:43:47;5.13;;;1.60;;
46222;SDS011;31943;51.410;7.564;2022-07-17T07:46:13;5.20;;;1.67;;
46222;SDS011;31943;51.410;7.564;2022-07-17T07:48:38;4.43;;;1.55;;
46222;SDS011;31943;51.410;7.564;2022-07-17T07:51:04;5.30;;;1.17;;
46222;SDS011;31943;51.410;7.564;2022-07-17T07:53:41;3.50;;;1.50;;
46222;SDS011;31943;51.410;7.564;2022-07-17T07:56:07;3.40;;;1.10;;
46222;SDS011;31943;51.410;7.564;2022-07-17T07:58:33;4.53;;;1.33;;
46222;SDS011;31943;51.410;7.564;2022-07-17T08:01:07;4.68;;;1.48;;
46222;SDS011;31943;51.410;7.564;2022-07-17T08:03:33;6.25;;;1.48;;
46222;SDS011;31943;51.410;7.564;2022-07-17T08:06:00;4.80;;;1.30;;
46222;SDS011;31943;51.410;7.564;2022-07-17T08:08:26;3.05;;;1.10;;
46222;SDS011;31943;51.410;7.564;2022-07-17T08:10:54;4.95;;;1.00;;
46222;SDS011;31943;51.410;7.564;2022-07-17T08:13:20;6.43;;;1.38;;
46222;SDS011;31943;51.410;7.564;2022-07-17T08:15:46;6.05;;;1.40;;
46222;SDS011;31943;51.410;7.564;2022-07-17T08:18:12;5.13;;;1.10;;
46222;SDS011;31943;51.410;7.564;2022-07-17T08:20:38;4.82;;;1.00;;
46222;SDS011;31943;51.410;7.564;2022-07-17T08:23:04;4.38;;;1.20;;
46222;SDS011;31943;51.410;7.564;2022-07-17T08:25:30;3.90;;;1.00;;
46222;SDS011;31943;51.410;7.564;2022-07-17T08:27:58;2.65;;;0.90;;
46222;SDS011;31943;51.410;7.564;2022-07-17T08:30:24;3.47;;;1.27;;
46222;SDS011;31943;51.410;7.564;2022-07-17T08:32:50;3.80;;;0.80;;
46222;SDS011;31943;51.410;7.564;2022-07-17T08:35:16;2.55;;;0.88;;
46222;SDS011;31943;51.410;7.564;2022-07-17T08:37:42;3.80;;;1.00;;
46222;SDS011;31943;51.410;7.564;2022-07-17T08:40:18;3.47;;;0.70;;
46222;SDS011;31943;51.410;7.564;2022-07-17T08:42:44;3.28;;;1.10;;
46222;SDS011;31943;51.410;7.564;2022-07-17T08:45:12;2.03;;;0.80;;
46222;SDS011;31943;51.410;7.564;2022-07-17T08:47:38;5.07;;;1.00;;
46222;SDS011;31943;51.410;7.564;2022-07-17T08:50:05;5.28;;;1.15;;
46222;SDS011;31943;51.410;7.564;2022-07-17T08:52:31;3.58;;;1.13;;
46222;SDS011;31943;51.410;7.564;2022-07-17T08:54:57;3.75;;;1.02;;
46222;SDS011;31943;51.410;7.564;2022-07-17T08:57:24;5.90;;;1.10;;
46222;SDS011;31943;51.410;7.564;2022-07-17T08:59:50;2.97;;;1.00;;
46222;SDS011;31943;51.410;7.564;2022-07-17T09:02:17;1.95;;;0.88;;
46222;SDS011;31943;51.410;7.564;2022-07-17T09:04:51;3.22;;;1.10;;
46222;SDS011;31943;51.410;7.564;2022-07-17T09:07:18;3.88;;;0.98;;
46222;SDS011;31943;51.410;7.564;2022-07-17T09:09:48;3.15;;;1.00;;
46222;SDS011;31943;51.410;7.564;2022-07-17T09:12:15;4.10;;;1.10;;
46222;SDS011;31943;51.410;7.564;2022-07-17T09:14:41;5.93;;;1.15;;
46222;SDS011;31943;51.410;7.564;2022-07-17T09:17:09;3.33;;;1.08;;
46222;SDS011;31943;51.410;7.564;2022-07-17T09:19:39;3.92;;;1.10;;
46222;SDS011;31943;51.410;7.564;2022-07-17T09:24:38;4.15;;;1.02;;
46222;SDS011;31943;51.410;7.564;2022-07-17T09:27:05;3.80;;;1.02;;
46222;SDS011;31943;51.410;7.564;2022-07-17T09:29:31;3.80;;;1.35;;
46222;SDS011;31943;51.410;7.564;2022-07-17T09:31:58;4.05;;;1.10;;
46222;SDS011;31943;51.410;7.564;2022-07-17T09:34:23;4.05;;;1.10;;
46222;SDS011;31943;51.410;7.564;2022-07-17T09:36:59;6.05;;;1.33;;
46222;SDS011;31943;51.410;7.564;2022-07-17T09:39:33;2.95;;;1.00;;
46222;SDS011;31943;51.410;7.564;2022-07-17T09:42:01;4.28;;;1.08;;
46222;SDS011;31943;51.410;7.564;2022-07-17T09:44:27;3.38;;;1.02;;
46222;SDS011;31943;51.410;7.564;2022-07-17T09:46:52;3.58;;;1.20;;
46222;SDS011;31943;51.410;7.564;2022-07-17T09:49:20;3.13;;;1.23;;
46222;SDS011;31943;51.410;7.564;2022-07-17T09:51:50;6.07;;;1.20;;
46222;SDS011;31943;51.410;7.564;2022-07-17T09:54:20;4.75;;;1.10;;
46222;SDS011;31943;51.410;7.564;2022-07-17T09:56:48;3.08;;;0.82;;
46222;SDS011;31943;51.410;7.564;2022-07-17T09:59:15;2.97;;;1.17;;
46222;SDS011;31943;51.410;7.564;2022-07-17T10:01:42;6.55;;;1.60;;
46222;SDS011;31943;51.410;7.564;2022-07-17T10:04:09;4.05;;;1.20;;
46222;SDS011;31943;51.410;7.564;2022-07-17T10:06:35;5.05;;;1.25;;
46222;SDS011;31943;51.410;7.564;2022-07-17T10:09:01;3.00;;;1.00;;
46222;SDS011;31943;51.410;7.564;2022-07-17T10:11:30;4.10;;;0.85;;
46222;SDS011;31943;51.410;7.564;2022-07-17T10:14:01;3.83;;;1.05;;
46222;SDS011;31943;51.410;7.564;2022-07-17T10:16:30;2.47;;;0.90;;
46222;SDS011;31943;51.410;7.564;2022-07-17T10:18:58;3.60;;;1.00;;
46222;SDS011;31943;51.410;7.564;2022-07-17T10:21:25;3.03;;;0.93;;
46222;SDS011;31943;51.410;7.564;2022-07-17T10:24:06;3.53;;;1.13;;
46222;SDS011;31943;51.410;7.564;2022-07-17T10:26:37;4.80;;;1.00;;
46222;SDS011;31943;51.410;7.564;2022-07-17T10:29:06;2.97;;;1.08;;
46222;SDS011;31943;51.410;7.564;2022-07-17T10:31:33;4.00;;;1.20;;
46222;SDS011;31943;51.410;7.564;2022-07-17T10:34:00;2.15;;;0.80;;
46222;SDS011;31943;51.410;7.564;2022-07-17T10:36:34;3.28;;;1.10;;
46222;SDS011;31943;51.410;7.564;2022-07-17T10:39:10;3.17;;;1.08;;
46222;SDS011;31943;51.410;7.564;2022-07-17T10:41:38;4.03;;;1.00;;
46222;SDS011;31943;51.410;7.564;2022-07-17T10:44:04;4.40;;;1.25;;
46222;SDS011;31943;51.410;7.564;2022-07-17T10:46:31;3.50;;;1.00;;
46222;SDS011;31943;51.410;7.564;2022-07-17T10:48:56;1.73;;;0.70;;
46222;SDS011;31943;51.410;7.564;2022-07-17T10:51:23;2.47;;;0.77;;
46222;SDS011;31943;51.410;7.564;2022-07-17T10:53:49;2.50;;;0.80;;
46222;SDS011;31943;51.410;7.564;2022-07-17T10:56:15;2.40;;;0.98;;
46222;SDS011;31943;51.410;7.564;2022-07-17T10:58:44;3.10;;;0.75;;
46222;SDS011;31943;51.410;7.564;2022-07-17T11:01:11;3.50;;;1.08;;
46222;SDS011;31943;51.410;7.564;2022-07-17T11:03:39;2.95;;;0.90;;
46222;SDS011;31943;51.410;7.564;2022-07-17T11:06:06;5.43;;;1.10;;
46222;SDS011;31943;51.410;7.564;2022-07-17T11:08:34;3.58;;;0.93;;
46222;SDS011;31943;51.410;7.564;2022-07-17T11:11:01;2.28;;;0.95;;
46222;SDS011;31943;51.410;7.564;2022-07-17T11:13:27;5.03;;;1.20;;
46222;SDS011;31943;51.410;7.564;2022-07-17T11:15:55;3.92;;;1.48;;
46222;SDS011;31943;51.410;7.564;2022-07-17T11:18:21;4.20;;;1.10;;
46222;SDS011;31943;51.410;7.564;2022-07-17T11:20:49;2.97;;;1.08;;
46222;SDS011;31943;51.410;7.564;2022-07-17T11:23:18;2.80;;;0.80;;
46222;SDS011;31943;51.410;7.564;2022-07-17T11:25:51;1.75;;;0.90;;
46222;SDS011;31943;51.410;7.564;2022-07-17T11:28:26;4.20;;;0.98;;
46222;SDS011;31943;51.410;7.564;2022-07-17T11:31:17;4.30;;;0.98;;
46222;SDS011;31943;51.410;7.564;2022-07-17T11:33:48;3.55;;;1.00;;
46222;SDS011;31943;51.410;7.564;2022-07-17T11:36:19;3.72;;;1.15;;
46222;SDS011;31943;51.410;7.564;2022-07-17T11:38:50;3.88;;;0.88;;
46222;SDS011;31943;51.410;7.564;2022-07-17T11:41:17;3.88;;;0.80;;
46222;SDS011;31943;51.410;7.564;2022-07-17T11:43:43;4.20;;;0.93;;
46222;SDS011;31943;51.410;7.564;2022-07-17T11:46:09;3.83;;;1.17;;
46222;SDS011;31943;51.410;7.564;2022-07-17T11:48:37;3.30;;;0.88;;
46222;SDS011;31943;51.410;7.564;2022-07-17T11:51:06;3.17;;;1.10;;
46222;SDS011;31943;51.410;7.564;2022-07-17T11:53:32;3.58;;;1.02;;
46222;SDS011;31943;51.410;7.564;2022-07-17T11:56:01;2.03;;;0.70;;
46222;SDS011;31943;51.410;7.564;2022-07-17T11:58:27;2.03;;;0.75;;
46222;SDS011;31943;51.410;7.564;2022-07-17T12:01:00;5.20;;;1.17;;
46222;SDS011;31943;51.410;7.564;2022-07-17T12:03:29;3.72;;;1.05;;
46222;SDS011;31943;51.410;7.564;2022-07-17T12:05:57;2.25;;;1.00;;
46222;SDS011;31943;51.410;7.564;2022-07-17T12:08:23;5.20;;;0.90;;
46222;SDS011;31943;51.410;7.564;2022-07-17T12:10:58;2.78;;;1.08;;
46222;SDS011;31943;51.410;7.564;2022-07-17T12:13:32;4.07;;;0.88;;
46222;SDS011;31943;51.410;7.564;2022-07-17T12:16:17;3.00;;;1.00;;
46222;SDS011;31943;51.410;7.564;2022-07-17T12:18:44;2.23;;;0.80;;
46222;SDS011;31943;51.410;7.564;2022-07-17T12:21:22;3.50;;;0.90;;
46222;SDS011;31943;51.410;7.564;2022-07-17T12:23:55;2.38;;;1.00;;
46222;SDS011;31943;51.410;7.564;2022-07-17T12:26:22;4.95;;;1.08;;
46222;SDS011;31943;51.410;7.564;2022-07-17T12:28:48;5.47;;;1.10;;
46222;SDS011;31943;51.410;7.564;2022-07-17T12:31:14;4.45;;;1.00;;
46222;SDS011;31943;51.410;7.564;2022-07-17T12:33:40;1.67;;;0.75;;
46222;SDS011;31943;51.410;7.564;2022-07-17T12:36:06;2.72;;;0.98;;
46222;SDS011;31943;51.410;7.564;2022-07-17T12:38:33;2.83;;;1.23;;
46222;SDS011;31943;51.410;7.564;2022-07-17T12:40:59;2.45;;;0.98;;
46222;SDS011;31943;51.410;7.564;2022-07-17T12:43:25;2.67;;;0.90;;
46222;SDS011;31943;51.410;7.564;2022-07-17T12:45:51;2.05;;;0.93;;
46222;SDS011;31943;51.410;7.564;2022-07-17T12:48:17;4.07;;;1.20;;
46222;SDS011;31943;51.410;7.564;2022-07-17T12:50:43;3.33;;;0.90;;
46222;SDS011;31943;51.410;7.564;2022-07-17T12:53:09;4.18;;;1.00;;
46222;SDS011;31943;51.410;7.564;2022-07-17T12:55:36;1.95;;;0.88;;
46222;SDS011;31943;51.410;7.564;2022-07-17T12:58:02;5.03;;;1.10;;
46222;SDS011;31943;51.410;7.564;2022-07-17T13:00:27;1.70;;;0.90;;
46222;SDS011;31943;51.410;7.564;2022-07-17T13:02:53;3.88;;;1.20;;
46222;SDS011;31943;51.410;7.564;2022-07-17T13:05:20;3.13;;;1.02;;
46222;SDS011;31943;51.410;7.564;2022-07-17T13:07:46;3.65;;;1.13;;
46222;SDS011;31943;51.410;7.564;2022-07-17T13:10:11;3.03;;;1.20;;
46222;SDS011;31943;51.410;7.564;2022-07-17T13:12:39;4.57;;;1.20;;
46222;SDS011;31943;51.410;7.564;2022-07-17T13:15:05;3.05;;;1.08;;
46222;SDS011;31943;51.410;7.564;2022-07-17T13:17:32;3.22;;;1.10;;
46222;SDS011;31943;51.410;7.564;2022-07-17T13:19:57;4.57;;;1.38;;
46222;SDS011;31943;51.410;7.564;2022-07-17T13:22:23;4.43;;;1.40;;
46222;SDS011;31943;51.410;7.564;2022-07-17T13:24:49;4.95;;;1.10;;
46222;SDS011;31943;51.410;7.564;2022-07-17T13:27:14;2.80;;;0.98;;
46222;SDS011;31943;51.410;7.564;2022-07-17T13:29:41;3.85;;;1.00;;
46222;SDS011;31943;51.410;7.564;2022-07-17T13:32:07;3.33;;;0.90;;
46222;SDS011;31943;51.410;7.564;2022-07-17T13:34:33;4.40;;;1.00;;
46222;SDS011;31943;51.410;7.564;2022-07-17T13:36:59;3.25;;;1.00;;
46222;SDS011;31943;51.410;7.564;2022-07-17T13:39:25;3.42;;;1.35;;
46222;SDS011;31943;51.410;7.564;2022-07-17T13:41:51;4.57;;;1.10;;
46222;SDS011;31943;51.410;7.564;2022-07-17T13:44:16;3.17;;;1.20;;
46222;SDS011;31943;51.410;7.564;2022-07-17T13:46:44;4.38;;;1.38;;
46222;SDS011;31943;51.410;7.564;2022-07-17T13:49:09;5.05;;;1.50;;
46222;SDS011;31943;51.410;7.564;2022-07-17T13:51:35;6.30;;;1.27;;
46222;SDS011;31943;51.410;7.564;2022-07-17T13:54:01;5.85;;;1.30;;
46222;SDS011;31943;51.410;7.564;2022-07-17T13:56:27;3.67;;;0.90;;
46222;SDS011;31943;51.410;7.564;2022-07-17T13:58:53;4.15;;;1.00;;
46222;SDS011;31943;51.410;7.564;2022-07-17T14:01:19;4.20;;;1.13;;
46222;SDS011;31943;51.410;7.564;2022-07-17T14:03:46;4.43;;;1.30;;
46222;SDS011;31943;51.410;7.564;2022-07-17T14:06:12;2.80;;;1.10;;
46222;SDS011;31943;51.410;7.564;2022-07-17T14:08:37;2.13;;;0.77;;
46222;SDS011;31943;51.410;7.564;2022-07-17T14:11:03;2.75;;;1.00;;
46222;SDS011;31943;51.410;7.564;2022-07-17T14:13:29;2.25;;;0.82;;
46222;SDS011;31943;51.410;7.564;2022-07-17T14:15:55;3.47;;;1.10;;
46222;SDS011;31943;51.410;7.564;2022-07-17T14:18:21;2.95;;;0.98;;
46222;SDS011;31943;51.410;7.564;2022-07-17T14:20:48;4.53;;;0.95;;
46222;SDS011;31943;51.410;7.564;2022-07-17T14:23:14;2.88;;;0.90;;
46222;SDS011;31943;51.410;7.564;2022-07-17T14:25:40;3.65;;;0.98;;
46222;SDS011;31943;51.410;7.564;2022-07-17T14:28:06;2.80;;;0.98;;
46222;SDS011;31943;51.410;7.564;2022-07-17T14:30:32;3.30;;;0.80;;
46222;SDS011;31943;51.410;7.564;2022-07-17T14:32:57;2.45;;;1.05;;
46222;SDS011;31943;51.410;7.564;2022-07-17T14:35:23;3.17;;;0.80;;
46222;SDS011;31943;51.410;7.564;2022-07-17T14:37:50;4.80;;;1.10;;
46222;SDS011;31943;51.410;7.564;2022-07-17T14:40:16;2.55;;;1.00;;
46222;SDS011;31943;51.410;7.564;2022-07-17T14:42:42;5.25;;;0.90;;
46222;SDS011;31943;51.410;7.564;2022-07-17T14:45:08;4.13;;;1.08;;
46222;SDS011;31943;51.410;7.564;2022-07-17T14:47:34;2.10;;;0.90;;
46222;SDS011;31943;51.410;7.564;2022-07-17T14:50:00;1.88;;;0.75;;